createdAt,value
2023-03-29T00:00:55.654Z,95656.00
2023-03-29T00:01:55.666Z,95658.00
2023-03-29T00:02:55.712Z,95660.00
2023-03-29T00:03:55.780Z,95662.00
2023-03-29T00:04:55.650Z,95666.00
2023-03-29T00:05:55.667Z,95666.00
2023-03-29T00:06:55.676Z,95677.00
2023-03-29T00:07:55.681Z,95681.00
2023-03-29T00:08:55.631Z,95691.00
2023-03-29T00:09:55.648Z,95695.00
2023-03-29T00:10:55.672Z,95697.00
2023-03-29T00:11:55.656Z,95707.00
2023-03-29T00:12:55.643Z,95707.00
2023-03-29T00:13:55.645Z,95707.00
2023-03-29T00:14:55.644Z,95707.00
2023-03-29T00:15:55.628Z,95707.00
2023-03-29T00:16:55.626Z,95697.00
2023-03-29T00:17:55.710Z,95695.00
2023-03-29T00:18:55.616Z,95693.00
2023-03-29T00:19:55.671Z,95695.00
2023-03-29T00:20:55.616Z,95695.00
2023-03-29T00:21:55.628Z,95691.00
2023-03-29T00:22:55.624Z,95689.00
2023-03-29T00:23:55.620Z,95685.00
2023-03-29T00:24:55.649Z,95687.00
2023-03-29T00:25:55.618Z,95693.00
2023-03-29T00:26:55.624Z,95709.00
2023-03-29T00:27:55.600Z,95713.00
2023-03-29T00:28:55.593Z,95713.00
2023-03-29T00:29:55.606Z,95718.00
2023-03-29T00:30:55.608Z,95718.00
2023-03-29T00:31:55.733Z,95722.00
2023-03-29T00:32:55.685Z,95720.00
2023-03-29T00:33:55.578Z,95718.00
2023-03-29T00:34:55.583Z,95718.00
2023-03-29T00:35:55.598Z,95718.00
2023-03-29T00:36:55.563Z,95724.00
2023-03-29T00:37:55.571Z,95728.00
2023-03-29T00:38:55.561Z,95728.00
2023-03-29T00:39:55.542Z,95730.00
2023-03-29T00:40:55.547Z,95730.00
2023-03-29T00:41:55.591Z,95734.00
2023-03-29T00:42:55.556Z,95738.00
2023-03-29T00:43:55.546Z,95740.00
2023-03-29T00:44:55.530Z,95738.00
2023-03-29T00:45:55.615Z,95734.00
2023-03-29T00:46:55.534Z,95736.00
2023-03-29T00:47:55.581Z,95742.00
2023-03-29T00:48:55.567Z,95744.00
2023-03-29T00:49:55.552Z,95744.00
2023-03-29T00:50:55.505Z,95740.00
2023-03-29T00:51:55.531Z,95738.00
2023-03-29T00:52:55.533Z,95738.00
2023-03-29T00:53:55.537Z,95734.00
2023-03-29T00:54:55.520Z,95732.00
2023-03-29T00:55:55.510Z,95730.00
2023-03-29T00:56:55.572Z,95734.00
2023-03-29T00:57:55.505Z,95734.00
2023-03-29T00:58:55.495Z,95738.00
2023-03-29T00:59:55.519Z,95746.00
2023-03-29T01:00:55.486Z,95750.00
2023-03-29T01:01:55.543Z,95752.00
2023-03-29T01:02:55.555Z,95756.00
2023-03-29T01:03:55.517Z,95760.00
2023-03-29T01:04:55.499Z,95761.00
2023-03-29T01:05:55.512Z,95761.00
2023-03-29T01:06:55.566Z,95765.00
2023-03-29T01:07:55.509Z,95763.00
2023-03-29T01:08:55.503Z,95760.00
2023-03-29T01:09:55.520Z,95756.00
2023-03-29T01:10:55.556Z,95754.00
2023-03-29T01:11:55.498Z,95752.00
2023-03-29T01:12:55.530Z,95746.00
2023-03-29T01:13:55.504Z,95750.00
2023-03-29T01:14:55.497Z,95756.00
2023-03-29T01:15:55.523Z,95760.00
2023-03-29T01:16:55.571Z,95756.00
2023-03-29T01:17:55.691Z,95752.00
2023-03-29T01:18:55.508Z,95746.00
2023-03-29T01:19:55.508Z,95744.00
2023-03-29T01:20:55.527Z,95740.00
2023-03-29T01:21:55.533Z,95734.00
2023-03-29T01:22:55.527Z,95734.00
2023-03-29T01:23:55.521Z,95734.00
2023-03-29T01:24:55.515Z,95736.00
2023-03-29T01:25:55.527Z,95740.00
2023-03-29T01:26:55.544Z,95744.00
2023-03-29T01:27:55.533Z,95744.00
2023-03-29T01:28:55.531Z,95742.00
2023-03-29T01:29:55.538Z,95740.00
2023-03-29T01:30:55.520Z,95738.00
2023-03-29T01:31:55.597Z,95740.00
2023-03-29T01:32:55.554Z,95742.00
2023-03-29T01:33:55.525Z,95734.00
2023-03-29T01:34:55.558Z,95734.00
2023-03-29T01:35:55.589Z,95740.00
2023-03-29T01:36:55.542Z,95742.00
2023-03-29T01:37:55.552Z,95744.00
2023-03-29T01:38:55.532Z,95744.00
2023-03-29T01:39:55.556Z,95742.00
2023-03-29T01:40:55.533Z,95742.00
2023-03-29T01:41:55.585Z,95742.00
2023-03-29T01:42:55.562Z,95742.00
2023-03-29T01:43:55.580Z,95732.00
2023-03-29T01:44:55.583Z,95728.00
2023-03-29T01:45:55.606Z,95724.00
2023-03-29T01:46:55.541Z,95726.00
2023-03-29T01:47:55.639Z,95726.00
2023-03-29T01:48:55.546Z,95728.00
2023-03-29T01:49:55.564Z,95726.00
2023-03-29T01:50:55.605Z,95726.00
2023-03-29T01:51:55.587Z,95724.00
2023-03-29T01:52:55.590Z,95726.00
2023-03-29T01:53:55.592Z,95724.00
2023-03-29T01:54:55.605Z,95724.00
2023-03-29T01:55:55.600Z,95724.00
2023-03-29T01:56:55.621Z,95724.00
2023-03-29T01:57:55.603Z,95722.00
2023-03-29T01:58:55.602Z,95724.00
2023-03-29T01:59:55.608Z,95726.00
2023-03-29T02:00:55.695Z,95726.00
2023-03-29T02:01:55.612Z,95724.00
2023-03-29T02:02:55.714Z,95724.00
2023-03-29T02:03:55.624Z,95726.00
2023-03-29T02:04:55.616Z,95726.00
2023-03-29T02:05:55.641Z,95726.00
2023-03-29T02:06:55.667Z,95720.00
2023-03-29T02:07:55.684Z,95720.00
2023-03-29T02:08:55.708Z,95716.00
2023-03-29T02:09:55.686Z,95716.00
2023-03-29T02:10:55.705Z,95716.00
2023-03-29T02:11:55.705Z,95716.00
2023-03-29T02:12:55.700Z,95714.00
2023-03-29T02:13:55.693Z,95709.00
2023-03-29T02:14:55.725Z,95707.00
2023-03-29T02:15:55.754Z,95697.00
2023-03-29T02:16:55.718Z,95695.00
2023-03-29T02:17:55.702Z,95697.00
2023-03-29T02:18:55.702Z,95695.00
2023-03-29T02:19:55.724Z,95695.00
2023-03-29T02:20:55.718Z,95695.00
2023-03-29T02:21:55.747Z,95691.00
2023-03-29T02:22:55.744Z,95687.00
2023-03-29T02:23:55.746Z,95685.00
2023-03-29T02:24:55.717Z,95687.00
2023-03-29T02:25:55.755Z,95687.00
2023-03-29T02:26:55.762Z,95689.00
2023-03-29T02:27:55.763Z,95691.00
2023-03-29T02:28:55.761Z,95687.00
2023-03-29T02:29:55.794Z,95687.00
2023-03-29T02:30:55.794Z,95687.00
2023-03-29T02:31:55.760Z,95685.00
2023-03-29T02:32:55.795Z,95687.00
2023-03-29T02:33:55.774Z,95687.00
2023-03-29T02:34:55.823Z,95687.00
2023-03-29T02:35:55.799Z,95689.00
2023-03-29T02:36:55.779Z,95693.00
2023-03-29T02:37:55.785Z,95693.00
2023-03-29T02:38:55.804Z,95697.00
2023-03-29T02:39:55.806Z,95695.00
2023-03-29T02:40:55.789Z,95695.00
2023-03-29T02:41:55.805Z,95695.00
2023-03-29T02:42:55.814Z,95693.00
2023-03-29T02:43:55.815Z,95691.00
2023-03-29T02:44:55.816Z,95691.00
2023-03-29T02:45:55.847Z,95689.00
2023-03-29T02:46:55.872Z,95687.00
2023-03-29T02:47:55.868Z,95683.00
2023-03-29T02:48:55.866Z,95687.00
2023-03-29T02:49:55.861Z,95685.00
2023-03-29T02:50:55.880Z,95683.00
2023-03-29T02:51:55.860Z,95681.00
2023-03-29T02:52:55.883Z,95679.00
2023-03-29T02:53:55.865Z,95675.00
2023-03-29T02:54:55.889Z,95669.00
2023-03-29T02:55:55.898Z,95668.00
2023-03-29T02:56:55.934Z,95668.00
2023-03-29T02:57:55.912Z,95666.00
2023-03-29T02:58:55.906Z,95666.00
2023-03-29T02:59:55.896Z,95666.00
2023-03-29T03:00:55.911Z,95666.00
2023-03-29T03:01:55.994Z,95666.00
2023-03-29T03:02:55.991Z,95668.00
2023-03-29T03:03:55.953Z,95669.00
2023-03-29T03:04:55.942Z,95671.00
2023-03-29T03:05:55.940Z,95671.00
2023-03-29T03:06:55.944Z,95669.00
2023-03-29T03:07:55.959Z,95668.00
2023-03-29T03:08:55.997Z,95660.00
2023-03-29T03:09:55.988Z,95658.00
2023-03-29T03:10:55.971Z,95662.00
2023-03-29T03:11:55.977Z,95662.00
2023-03-29T03:12:55.960Z,95666.00
2023-03-29T03:13:55.991Z,95668.00
2023-03-29T03:14:56.013Z,95664.00
2023-03-29T03:15:56.040Z,95668.00
2023-03-29T03:16:55.962Z,95666.00
2023-03-29T03:17:56.059Z,95666.00
2023-03-29T03:18:55.982Z,95668.00
2023-03-29T03:19:55.952Z,95669.00
2023-03-29T03:20:55.980Z,95669.00
2023-03-29T03:21:55.943Z,95669.00
2023-03-29T03:22:55.986Z,95673.00
2023-03-29T03:23:55.956Z,95675.00
2023-03-29T03:24:56.056Z,95675.00
2023-03-29T03:25:55.976Z,95675.00
2023-03-29T03:26:55.994Z,95679.00
2023-03-29T03:27:56.005Z,95681.00
2023-03-29T03:28:56.021Z,95683.00
2023-03-29T03:29:55.999Z,95685.00
2023-03-29T03:30:56.023Z,95687.00
2023-03-29T03:31:56.077Z,95693.00
2023-03-29T03:32:56.058Z,95695.00
2023-03-29T03:33:56.033Z,95695.00
2023-03-29T03:34:56.016Z,95697.00
2023-03-29T03:35:56.065Z,95695.00
2023-03-29T03:36:56.002Z,95709.00
2023-03-29T03:37:56.049Z,95711.00
2023-03-29T03:38:56.010Z,95713.00
2023-03-29T03:39:56.020Z,95713.00
2023-03-29T03:40:56.026Z,95716.00
2023-03-29T03:41:55.998Z,95716.00
2023-03-29T03:42:56.014Z,95720.00
2023-03-29T03:43:56.033Z,95722.00
2023-03-29T03:44:56.041Z,95722.00
2023-03-29T03:45:56.050Z,95720.00
2023-03-29T03:46:56.016Z,95718.00
2023-03-29T03:47:56.053Z,95718.00
2023-03-29T03:48:56.028Z,95718.00
2023-03-29T03:49:55.988Z,95713.00
2023-03-29T03:50:55.991Z,95709.00
2023-03-29T03:51:56.015Z,95707.00
2023-03-29T03:52:56.011Z,95707.00
2023-03-29T03:53:56.037Z,95697.00
2023-03-29T03:54:55.988Z,95695.00
2023-03-29T03:55:56.080Z,95693.00
2023-03-29T03:56:56.049Z,95693.00
2023-03-29T03:57:56.126Z,95691.00
2023-03-29T03:58:56.060Z,95691.00
2023-03-29T03:59:56.059Z,95689.00
2023-03-29T04:00:56.054Z,95689.00
2023-03-29T04:01:56.190Z,95691.00
2023-03-29T04:02:56.231Z,95691.00
2023-03-29T04:03:56.289Z,95689.00
2023-03-29T04:04:56.080Z,95683.00
2023-03-29T04:05:56.116Z,95685.00
2023-03-29T04:06:56.081Z,95685.00
2023-03-29T04:07:56.087Z,95685.00
2023-03-29T04:08:56.110Z,95681.00
2023-03-29T04:09:56.089Z,95681.00
2023-03-29T04:10:56.122Z,95679.00
2023-03-29T04:11:56.143Z,95681.00
2023-03-29T04:12:56.132Z,95679.00
2023-03-29T04:13:56.158Z,95675.00
2023-03-29T04:14:56.146Z,95671.00
2023-03-29T04:15:58.163Z,95664.00
2023-03-29T04:16:56.154Z,95664.00
2023-03-29T04:17:56.285Z,95662.00
2023-03-29T04:18:56.164Z,95662.00
2023-03-29T04:19:56.163Z,95656.00
2023-03-29T04:20:56.153Z,95658.00
2023-03-29T04:21:56.115Z,95658.00
2023-03-29T04:22:56.150Z,95650.00
2023-03-29T04:23:56.101Z,95646.00
2023-03-29T04:24:56.105Z,95646.00
2023-03-29T04:25:56.087Z,95644.00
2023-03-29T04:26:56.106Z,95648.00
2023-03-29T04:27:56.099Z,95650.00
2023-03-29T04:28:56.096Z,95650.00
2023-03-29T04:29:56.060Z,95654.00
2023-03-29T04:30:56.165Z,95654.00
2023-03-29T04:31:56.073Z,95656.00
2023-03-29T04:32:56.289Z,95652.00
2023-03-29T04:33:57.783Z,95646.00
2023-03-29T04:34:56.030Z,95650.00
2023-03-29T04:35:56.029Z,95646.00
2023-03-29T04:36:56.029Z,95636.00
2023-03-29T04:37:56.035Z,95624.00
2023-03-29T04:38:56.029Z,95626.00
2023-03-29T04:39:56.000Z,95634.00
2023-03-29T04:40:55.995Z,95636.00
2023-03-29T04:41:56.010Z,95632.00
2023-03-29T04:42:55.993Z,95634.00
2023-03-29T04:43:56.024Z,95634.00
2023-03-29T04:44:56.053Z,95630.00
2023-03-29T04:45:56.066Z,95626.00
2023-03-29T04:46:55.947Z,95622.00
2023-03-29T04:47:56.098Z,95615.00
2023-03-29T04:48:55.943Z,95607.00
2023-03-29T04:49:55.924Z,95613.00
2023-03-29T04:50:55.926Z,95617.00
2023-03-29T04:51:55.958Z,95615.00
2023-03-29T04:52:55.922Z,95617.00
2023-03-29T04:53:55.914Z,95615.00
2023-03-29T04:54:55.894Z,95617.00
2023-03-29T04:55:55.896Z,95617.00
2023-03-29T04:56:55.964Z,95615.00
2023-03-29T04:57:55.883Z,95613.00
2023-03-29T04:58:55.896Z,95611.00
2023-03-29T04:59:55.895Z,95607.00
2023-03-29T05:01:03.160Z,95607.00
2023-03-29T05:01:55.866Z,95609.00
2023-03-29T05:02:55.919Z,95611.00
2023-03-29T05:03:55.867Z,95613.00
2023-03-29T05:04:55.857Z,95615.00
2023-03-29T05:05:55.817Z,95615.00
2023-03-29T05:06:55.835Z,95609.00
2023-03-29T05:07:55.805Z,95613.00
2023-03-29T05:08:55.841Z,95611.00
2023-03-29T05:09:55.785Z,95609.00
2023-03-29T05:10:55.805Z,95605.00
2023-03-29T05:11:55.819Z,95609.00
2023-03-29T05:12:55.897Z,95613.00
2023-03-29T05:13:55.778Z,95609.00
2023-03-29T05:14:55.793Z,95609.00
2023-03-29T05:15:55.835Z,95603.00
2023-03-29T05:16:55.740Z,95601.00
2023-03-29T05:17:55.839Z,95599.00
2023-03-29T05:18:55.741Z,95597.00
2023-03-29T05:19:55.750Z,95595.00
2023-03-29T05:20:55.722Z,95593.00
2023-03-29T05:21:55.751Z,95593.00
2023-03-29T05:22:55.726Z,95595.00
2023-03-29T05:23:55.691Z,95597.00
2023-03-29T05:24:55.702Z,95595.00
2023-03-29T05:25:55.718Z,95597.00
2023-03-29T05:26:55.717Z,95589.00
2023-03-29T05:27:55.673Z,95585.00
2023-03-29T05:28:55.677Z,95583.00
2023-03-29T05:29:55.685Z,95589.00
2023-03-29T05:30:55.665Z,95589.00
2023-03-29T05:31:55.662Z,95593.00
2023-03-29T05:32:55.673Z,95593.00
2023-03-29T05:33:55.631Z,95593.00
2023-03-29T05:34:55.638Z,95587.00
2023-03-29T05:35:55.646Z,95585.00
2023-03-29T05:36:55.616Z,95585.00
2023-03-29T05:37:55.661Z,95587.00
2023-03-29T05:38:55.611Z,95587.00
2023-03-29T05:40:05.666Z,95591.00
2023-03-29T05:40:56.596Z,95591.00
2023-03-29T05:41:55.593Z,95591.00
2023-03-29T05:42:55.557Z,95593.00
2023-03-29T05:43:56.062Z,95589.00
2023-03-29T05:44:55.587Z,95591.00
2023-03-29T05:47:14.661Z,95583.00
2023-03-29T05:48:14.668Z,95585.00
2023-03-29T05:49:14.673Z,95587.00
2023-03-29T05:50:15.379Z,95591.00
2023-03-29T05:51:14.630Z,95587.00
2023-03-29T05:52:14.646Z,95587.00
2023-03-29T05:53:14.620Z,95583.00
2023-03-29T05:54:14.672Z,95587.00
2023-03-29T05:55:14.612Z,95591.00
2023-03-29T05:56:14.593Z,95597.00
2023-03-29T05:57:14.607Z,95605.00
2023-03-29T05:58:14.603Z,95605.00
2023-03-29T05:59:14.564Z,95605.00
2023-03-29T06:00:14.603Z,95605.00
2023-03-29T06:01:14.563Z,95601.00
2023-03-29T06:02:14.544Z,95599.00
2023-03-29T06:03:20.804Z,95599.00
2023-03-29T06:04:15.702Z,95595.00
2023-03-29T06:05:14.536Z,95597.00
2023-03-29T06:06:14.543Z,95597.00
2023-03-29T06:07:14.503Z,95597.00
2023-03-29T06:08:14.510Z,95597.00
2023-03-29T06:09:14.523Z,95599.00
2023-03-29T06:10:14.581Z,95603.00
2023-03-29T06:11:14.528Z,95605.00
2023-03-29T06:12:14.509Z,95607.00
2023-03-29T06:13:14.551Z,95609.00
2023-03-29T06:14:14.606Z,95617.00
2023-03-29T06:15:15.554Z,95619.00
2023-03-29T06:16:14.693Z,95619.00
2023-03-29T06:17:14.875Z,95619.00
2023-03-29T06:18:14.797Z,95613.00
2023-03-29T06:19:14.904Z,95609.00
2023-03-29T06:20:14.979Z,95609.00
2023-03-29T06:21:15.028Z,95605.00
2023-03-29T06:22:15.084Z,95607.00
2023-03-29T06:23:15.437Z,95611.00
2023-03-29T06:24:15.401Z,95615.00
2023-03-29T06:25:15.377Z,95615.00
2023-03-29T06:26:15.259Z,95615.00
2023-03-29T06:27:15.324Z,95617.00
2023-03-29T06:28:16.377Z,95617.00
2023-03-29T06:29:15.522Z,95615.00
2023-03-29T06:30:15.562Z,95615.00
2023-03-29T06:31:15.625Z,95617.00
2023-03-29T06:32:15.635Z,95615.00
2023-03-29T06:33:15.705Z,95621.00
2023-03-29T06:34:15.748Z,95619.00
2023-03-29T06:35:15.824Z,95621.00
2023-03-29T06:36:15.970Z,95622.00
2023-03-29T06:37:15.933Z,95621.00
2023-03-29T06:38:16.026Z,95622.00
2023-03-29T06:39:16.136Z,95622.00
2023-03-29T06:40:16.355Z,95628.00
2023-03-29T06:41:16.141Z,95626.00
2023-03-29T06:42:21.230Z,95626.00
2023-03-29T06:43:17.126Z,95626.00
2023-03-29T06:44:16.405Z,95630.00
2023-03-29T06:45:16.084Z,95632.00
2023-03-29T06:46:16.174Z,95634.00
2023-03-29T06:47:16.074Z,95636.00
2023-03-29T06:48:17.092Z,95636.00
2023-03-29T06:49:16.051Z,95632.00
2023-03-29T06:50:16.076Z,95636.00
2023-03-29T06:51:16.050Z,95634.00
2023-03-29T06:52:16.059Z,95634.00
2023-03-29T06:53:16.031Z,95630.00
2023-03-29T06:54:16.208Z,95632.00
2023-03-29T06:55:16.030Z,95628.00
2023-03-29T06:56:17.340Z,95628.00
2023-03-29T06:57:16.105Z,95628.00
2023-03-29T06:58:17.254Z,95632.00
2023-03-29T06:59:15.998Z,95636.00
2023-03-29T07:00:16.380Z,95630.00
2023-03-29T07:01:16.088Z,95630.00
2023-03-29T07:02:16.139Z,95630.00
2023-03-29T07:03:16.118Z,95628.00
2023-03-29T07:04:16.184Z,95632.00
2023-03-29T07:05:16.182Z,95628.00
2023-03-29T07:06:16.144Z,95628.00
2023-03-29T07:07:16.159Z,95630.00
2023-03-29T07:08:16.170Z,95628.00
2023-03-29T07:09:17.153Z,95626.00
2023-03-29T07:10:16.375Z,95628.00
2023-03-29T07:11:16.156Z,95628.00
2023-03-29T07:12:16.146Z,95632.00
2023-03-29T07:13:16.125Z,95638.00
2023-03-29T07:14:16.114Z,95644.00
2023-03-29T07:15:16.194Z,95646.00
2023-03-29T07:16:16.147Z,95640.00
2023-03-29T07:17:16.123Z,95638.00
2023-03-29T07:18:16.114Z,95638.00
2023-03-29T07:19:16.109Z,95636.00
2023-03-29T07:20:16.120Z,95642.00
2023-03-29T07:21:16.108Z,95642.00
2023-03-29T07:22:16.058Z,95642.00
2023-03-29T07:23:16.060Z,95642.00
2023-03-29T07:24:16.078Z,95640.00
2023-03-29T07:25:16.082Z,95636.00
2023-03-29T07:26:16.040Z,95638.00
2023-03-29T07:27:17.080Z,95640.00
2023-03-29T07:28:16.031Z,95640.00
2023-03-29T07:29:16.027Z,95644.00
2023-03-29T07:30:16.032Z,95642.00
2023-03-29T07:31:16.046Z,95640.00
2023-03-29T07:32:16.029Z,95640.00
2023-03-29T07:33:16.198Z,95638.00
2023-03-29T07:34:15.960Z,95642.00
2023-03-29T07:35:16.006Z,95642.00
2023-03-29T07:36:15.990Z,95646.00
2023-03-29T07:37:15.998Z,95646.00
2023-03-29T07:38:16.025Z,95646.00
2023-03-29T07:39:16.077Z,95642.00
2023-03-29T07:40:16.101Z,95642.00
2023-03-29T07:41:16.149Z,95644.00
2023-03-29T07:42:16.172Z,95644.00
2023-03-29T07:43:16.221Z,95644.00
2023-03-29T07:44:16.232Z,95642.00
2023-03-29T07:45:16.478Z,95646.00
2023-03-29T07:46:16.339Z,95646.00
2023-03-29T07:47:16.320Z,95644.00
2023-03-29T07:48:16.362Z,95648.00
2023-03-29T07:49:16.465Z,95642.00
2023-03-29T07:50:16.429Z,95644.00
2023-03-29T07:51:16.465Z,95640.00
2023-03-29T07:52:16.494Z,95634.00
2023-03-29T07:53:16.622Z,95634.00
2023-03-29T07:54:16.606Z,95632.00
2023-03-29T07:55:16.644Z,95636.00
2023-03-29T07:56:16.737Z,95636.00
2023-03-29T07:57:16.769Z,95638.00
2023-03-29T07:58:16.812Z,95638.00
2023-03-29T07:59:16.894Z,95636.00
2023-03-29T08:00:17.167Z,95640.00
2023-03-29T08:01:19.372Z,95642.00
2023-03-29T08:02:17.012Z,95642.00
2023-03-29T08:03:17.166Z,95640.00
2023-03-29T08:04:17.027Z,95638.00
2023-03-29T08:05:23.194Z,95638.00
2023-03-29T08:06:17.968Z,95634.00
2023-03-29T08:07:18.907Z,95642.00
2023-03-29T08:08:16.939Z,95640.00
2023-03-29T08:09:16.952Z,95642.00
2023-03-29T08:10:16.951Z,95642.00
2023-03-29T08:11:16.978Z,95640.00
2023-03-29T08:12:16.933Z,95642.00
2023-03-29T08:13:18.146Z,95642.00
2023-03-29T08:14:17.106Z,95644.00
2023-03-29T08:15:17.414Z,95646.00
2023-03-29T08:16:16.940Z,95646.00
2023-03-29T08:17:18.513Z,95646.00
2023-03-29T08:18:16.883Z,95648.00
2023-03-29T08:19:16.944Z,95650.00
2023-03-29T08:20:18.037Z,95648.00
2023-03-29T08:21:16.874Z,95648.00
2023-03-29T08:22:16.871Z,95648.00
2023-03-29T08:23:16.865Z,95644.00
2023-03-29T08:24:17.624Z,95644.00
2023-03-29T08:25:16.873Z,95646.00
2023-03-29T08:26:16.854Z,95646.00
2023-03-29T08:27:16.838Z,95644.00
2023-03-29T08:28:16.834Z,95644.00
2023-03-29T08:29:16.872Z,95644.00
2023-03-29T08:30:16.890Z,95644.00
2023-03-29T08:31:16.928Z,95644.00
2023-03-29T08:32:16.901Z,95646.00
2023-03-29T08:33:17.025Z,95646.00
2023-03-29T08:34:16.993Z,95648.00
2023-03-29T08:35:17.092Z,95648.00
2023-03-29T08:36:17.089Z,95650.00
2023-03-29T08:37:17.117Z,95650.00
2023-03-29T08:38:17.186Z,95654.00
2023-03-29T08:39:18.499Z,95656.00
2023-03-29T08:40:17.432Z,95660.00
2023-03-29T08:41:17.377Z,95656.00
2023-03-29T08:42:17.414Z,95654.00
2023-03-29T08:43:17.523Z,95664.00
2023-03-29T08:44:17.527Z,95664.00
2023-03-29T08:45:17.610Z,95671.00
2023-03-29T08:46:17.728Z,95673.00
2023-03-29T08:47:17.787Z,95675.00
2023-03-29T08:48:17.801Z,95675.00
2023-03-29T08:49:17.847Z,95675.00
2023-03-29T08:50:17.887Z,95669.00
2023-03-29T08:51:17.921Z,95669.00
2023-03-29T08:52:17.969Z,95669.00
2023-03-29T08:53:18.035Z,95669.00
2023-03-29T08:54:18.109Z,95669.00
2023-03-29T08:55:18.474Z,95668.00
2023-03-29T08:56:18.189Z,95669.00
2023-03-29T08:57:18.952Z,95671.00
2023-03-29T08:58:18.323Z,95669.00
2023-03-29T08:59:18.359Z,95669.00
2023-03-29T09:00:18.488Z,95669.00
2023-03-29T09:01:18.492Z,95666.00
2023-03-29T09:02:18.671Z,95666.00
2023-03-29T09:03:18.671Z,95668.00
2023-03-29T09:04:18.629Z,95664.00
2023-03-29T09:05:18.697Z,95671.00
2023-03-29T09:06:18.739Z,95668.00
2023-03-29T09:07:18.815Z,95666.00
2023-03-29T09:08:18.890Z,95664.00
2023-03-29T09:09:18.941Z,95669.00
2023-03-29T09:10:19.007Z,95673.00
2023-03-29T09:11:19.008Z,95671.00
2023-03-29T09:12:19.061Z,95671.00
2023-03-29T09:13:19.161Z,95668.00
2023-03-29T09:14:19.161Z,95664.00
2023-03-29T09:15:19.199Z,95664.00
2023-03-29T09:16:19.337Z,95666.00
2023-03-29T09:17:19.352Z,95668.00
2023-03-29T09:18:19.418Z,95669.00
2023-03-29T09:19:19.445Z,95664.00
2023-03-29T09:20:19.932Z,95666.00
2023-03-29T09:21:19.480Z,95662.00
2023-03-29T09:22:19.540Z,95668.00
2023-03-29T09:23:19.577Z,95666.00
2023-03-29T09:24:19.583Z,95669.00
2023-03-29T09:25:19.609Z,95666.00
2023-03-29T09:26:19.633Z,95666.00
2023-03-29T09:27:19.619Z,95664.00
2023-03-29T09:28:19.641Z,95666.00
2023-03-29T09:29:19.644Z,95666.00
2023-03-29T09:30:19.917Z,95666.00
2023-03-29T09:31:19.739Z,95666.00
2023-03-29T09:32:19.662Z,95666.00
2023-03-29T09:33:19.718Z,95668.00
2023-03-29T09:34:19.691Z,95662.00
2023-03-29T09:35:19.923Z,95664.00
2023-03-29T09:36:19.839Z,95666.00
2023-03-29T09:37:19.709Z,95664.00
2023-03-29T09:38:19.700Z,95664.00
2023-03-29T09:39:19.690Z,95662.00
2023-03-29T09:40:19.706Z,95662.00
2023-03-29T09:41:19.707Z,95658.00
2023-03-29T09:42:19.707Z,95658.00
2023-03-29T09:43:19.749Z,95656.00
2023-03-29T09:44:30.132Z,95656.00
2023-03-29T09:45:20.745Z,95654.00
2023-03-29T09:46:19.767Z,95650.00
2023-03-29T09:47:19.757Z,95650.00
2023-03-29T09:48:19.730Z,95652.00
2023-03-29T09:49:19.737Z,95652.00
2023-03-29T09:50:30.166Z,95658.00
2023-03-29T09:51:20.697Z,95656.00
2023-03-29T09:52:19.696Z,95652.00
2023-03-29T09:53:19.720Z,95650.00
2023-03-29T09:54:19.673Z,95648.00
2023-03-29T09:55:19.716Z,95646.00
2023-03-29T09:56:19.688Z,95648.00
2023-03-29T09:57:19.738Z,95648.00
2023-03-29T09:58:19.621Z,95650.00
2023-03-29T09:59:19.641Z,95648.00
2023-03-29T10:00:19.658Z,95646.00
2023-03-29T10:01:19.741Z,95644.00
2023-03-29T10:02:19.677Z,95640.00
2023-03-29T10:03:19.620Z,95644.00
2023-03-29T10:04:19.787Z,95642.00
2023-03-29T10:05:20.474Z,95638.00
2023-03-29T10:06:20.425Z,95634.00
2023-03-29T10:07:19.595Z,95634.00
2023-03-29T10:08:19.963Z,95632.00
2023-03-29T10:09:19.544Z,95630.00
2023-03-29T10:10:19.540Z,95628.00
2023-03-29T10:11:19.595Z,95628.00
2023-03-29T10:12:19.621Z,95626.00
2023-03-29T10:13:19.630Z,95626.00
2023-03-29T10:14:19.537Z,95621.00
2023-03-29T10:15:29.317Z,95621.00
2023-03-29T10:16:20.536Z,95621.00
2023-03-29T10:17:19.534Z,95621.00
2023-03-29T10:18:19.569Z,95621.00
2023-03-29T10:19:19.526Z,95621.00
2023-03-29T10:20:19.569Z,95621.00
2023-03-29T10:21:19.992Z,95617.00
2023-03-29T10:22:19.514Z,95619.00
2023-03-29T10:23:19.469Z,95621.00
2023-03-29T10:24:19.475Z,95621.00
2023-03-29T10:25:19.517Z,95619.00
2023-03-29T10:26:19.510Z,95621.00
2023-03-29T10:27:19.431Z,95621.00
2023-03-29T10:28:19.446Z,95619.00
2023-03-29T10:29:19.473Z,95617.00
2023-03-29T10:30:19.408Z,95619.00
2023-03-29T10:31:19.465Z,95621.00
2023-03-29T10:32:19.393Z,95622.00
2023-03-29T10:33:19.404Z,95622.00
2023-03-29T10:34:19.414Z,95621.00
2023-03-29T10:35:19.397Z,95621.00
2023-03-29T10:36:19.417Z,95619.00
2023-03-29T10:37:19.469Z,95619.00
2023-03-29T10:38:19.392Z,95619.00
2023-03-29T10:39:19.323Z,95619.00
2023-03-29T10:40:19.369Z,95617.00
2023-03-29T10:41:19.322Z,95621.00
2023-03-29T10:42:19.347Z,95619.00
2023-03-29T10:43:19.347Z,95619.00
2023-03-29T10:44:19.362Z,95615.00
2023-03-29T10:45:19.424Z,95615.00
2023-03-29T10:46:19.500Z,95617.00
2023-03-29T10:47:19.438Z,95615.00
2023-03-29T10:48:19.544Z,95617.00
2023-03-29T10:49:19.486Z,95615.00
2023-03-29T10:50:19.552Z,95615.00
2023-03-29T10:51:19.937Z,95615.00
2023-03-29T10:52:19.574Z,95617.00
2023-03-29T10:53:19.622Z,95617.00
2023-03-29T10:54:19.620Z,95615.00
2023-03-29T10:55:19.656Z,95611.00
2023-03-29T10:56:19.708Z,95613.00
2023-03-29T10:57:21.582Z,95617.00
2023-03-29T10:58:19.680Z,95615.00
2023-03-29T10:59:19.670Z,95617.00
2023-03-29T11:00:19.695Z,95615.00
2023-03-29T11:01:19.711Z,95611.00
2023-03-29T11:02:19.666Z,95609.00
2023-03-29T11:03:21.723Z,95609.00
2023-03-29T11:04:19.656Z,95609.00
2023-03-29T11:05:19.658Z,95613.00
2023-03-29T11:06:19.975Z,95613.00
2023-03-29T11:07:19.693Z,95613.00
2023-03-29T11:08:19.611Z,95613.00
2023-03-29T11:09:19.663Z,95613.00
2023-03-29T11:10:19.631Z,95615.00
2023-03-29T11:11:19.603Z,95611.00
2023-03-29T11:12:19.630Z,95607.00
2023-03-29T11:13:19.643Z,95605.00
2023-03-29T11:14:19.672Z,95603.00
2023-03-29T11:15:19.733Z,95607.00
2023-03-29T11:16:19.824Z,95605.00
2023-03-29T11:17:19.745Z,95595.00
2023-03-29T11:18:19.747Z,95599.00
2023-03-29T11:19:19.751Z,95595.00
2023-03-29T11:20:19.753Z,95593.00
2023-03-29T11:21:19.984Z,95593.00
2023-03-29T11:22:19.781Z,95591.00
2023-03-29T11:23:19.784Z,95587.00
2023-03-29T11:24:19.804Z,95591.00
2023-03-29T11:25:19.789Z,95587.00
2023-03-29T11:26:20.022Z,95585.00
2023-03-29T11:27:19.805Z,95585.00
2023-03-29T11:28:19.821Z,95585.00
2023-03-29T11:29:19.844Z,95587.00
2023-03-29T11:30:19.847Z,95585.00
2023-03-29T11:31:20.044Z,95585.00
2023-03-29T11:32:19.888Z,95585.00
2023-03-29T11:33:19.848Z,95582.00
2023-03-29T11:34:19.871Z,95582.00
2023-03-29T11:35:19.987Z,95583.00
2023-03-29T11:36:19.981Z,95582.00
2023-03-29T11:37:19.875Z,95580.00
2023-03-29T11:38:19.848Z,95580.00
2023-03-29T11:39:19.871Z,95577.00
2023-03-29T11:40:19.855Z,95577.00
2023-03-29T11:41:19.839Z,95580.00
2023-03-29T11:42:19.814Z,95580.00
2023-03-29T11:43:19.807Z,95582.00
2023-03-29T11:44:19.810Z,95575.00
2023-03-29T11:45:19.827Z,95580.00
2023-03-29T11:46:19.939Z,95577.00